sensor_id;sensor_type;location;lat;lon;timestamp;temperature;humidity
57058;DHT22;55017;52.848;6.748;2022-11-14T00:01:06;7.30;99.90
57058;DHT22;55017;52.848;6.748;2022-11-14T00:03:32;7.30;99.90
57058;DHT22;55017;52.848;6.748;2022-11-14T00:05:58;7.30;99.90
57058;DHT22;55017;52.848;6.748;2022-11-14T00:08:24;7.50;99.90
57058;DHT22;55017;52.848;6.748;2022-11-14T00:10:50;7.40;99.90
57058;DHT22;55017;52.848;6.748;2022-11-14T00:13:17;7.40;99.90
57058;DHT22;55017;52.848;6.748;2022-11-14T00:15:43;7.40;99.90
57058;DHT22;55017;52.848;6.748;2022-11-14T00:18:10;7.30;99.90
57058;DHT22;55017;52.848;6.748;2022-11-14T00:20:36;7.40;99.90
57058;DHT22;55017;52.848;6.748;2022-11-14T00:23:01;7.40;99.90
57058;DHT22;55017;52.848;6.748;2022-11-14T00:25:27;7.30;99.90
57058;DHT22;55017;52.848;6.748;2022-11-14T00:27:56;7.40;99.90
57058;DHT22;55017;52.848;6.748;2022-11-14T00:30:22;7.40;99.90
57058;DHT22;55017;52.848;6.748;2022-11-14T00:32:47;7.50;99.90
57058;DHT22;55017;52.848;6.748;2022-11-14T00:35:13;7.40;99.90
57058;DHT22;55017;52.848;6.748;2022-11-14T00:37:39;7.40;99.90
57058;DHT22;55017;52.848;6.748;2022-11-14T00:40:04;7.40;99.90
57058;DHT22;55017;52.848;6.748;2022-11-14T00:42:30;7.50;99.90
57058;DHT22;55017;52.848;6.748;2022-11-14T00:44:56;7.50;99.90
57058;DHT22;55017;52.848;6.748;2022-11-14T00:47:22;7.50;99.90
57058;DHT22;55017;52.848;6.748;2022-11-14T00:49:47;7.50;99.90
57058;DHT22;55017;52.848;6.748;2022-11-14T00:52:13;7.50;99.90
57058;DHT22;55017;52.848;6.748;2022-11-14T00:54:38;7.40;99.90
57058;DHT22;55017;52.848;6.748;2022-11-14T00:57:04;7.40;99.90
57058;DHT22;55017;52.848;6.748;2022-11-14T00:59:29;7.40;99.90
57058;DHT22;55017;52.848;6.748;2022-11-14T01:01:55;7.40;99.90
57058;DHT22;55017;52.848;6.748;2022-11-14T01:04:21;7.30;99.90
57058;DHT22;55017;52.848;6.748;2022-11-14T01:06:46;7.40;99.90
57058;DHT22;55017;52.848;6.748;2022-11-14T01:09:12;7.30;99.90
57058;DHT22;55017;52.848;6.748;2022-11-14T01:11:37;7.40;99.90
57058;DHT22;55017;52.848;6.748;2022-11-14T01:14:05;7.30;99.90
57058;DHT22;55017;52.848;6.748;2022-11-14T01:16:31;7.30;99.90
57058;DHT22;55017;52.848;6.748;2022-11-14T01:18:57;7.40;99.90
57058;DHT22;55017;52.848;6.748;2022-11-14T01:21:22;7.30;99.90
57058;DHT22;55017;52.848;6.748;2022-11-14T01:23:48;7.30;99.90
57058;DHT22;55017;52.848;6.748;2022-11-14T01:26:14;7.30;99.90
57058;DHT22;55017;52.848;6.748;2022-11-14T01:28:40;7.30;99.90
57058;DHT22;55017;52.848;6.748;2022-11-14T01:31:11;7.30;99.90
57058;DHT22;55017;52.848;6.748;2022-11-14T01:33:37;7.30;99.90
57058;DHT22;55017;52.848;6.748;2022-11-14T01:36:04;7.20;99.90
57058;DHT22;55017;52.848;6.748;2022-11-14T01:38:29;7.30;99.90
57058;DHT22;55017;52.848;6.748;2022-11-14T01:40:55;7.10;99.90
57058;DHT22;55017;52.848;6.748;2022-11-14T01:43:25;7.20;99.90
57058;DHT22;55017;52.848;6.748;2022-11-14T01:46:09;7.20;99.90
57058;DHT22;55017;52.848;6.748;2022-11-14T01:51:28;7.20;99.90
57058;DHT22;55017;52.848;6.748;2022-11-14T01:53:56;7.10;99.90
57058;DHT22;55017;52.848;6.748;2022-11-14T01:56:33;7.10;99.90
57058;DHT22;55017;52.848;6.748;2022-11-14T01:59:13;7.10;99.90
57058;DHT22;55017;52.848;6.748;2022-11-14T02:02:01;7.00;99.90
57058;DHT22;55017;52.848;6.748;2022-11-14T02:04:32;7.10;99.90
57058;DHT22;55017;52.848;6.748;2022-11-14T02:07:00;7.00;99.90
57058;DHT22;55017;52.848;6.748;2022-11-14T02:09:29;7.10;99.90
57058;DHT22;55017;52.848;6.748;2022-11-14T02:11:57;7.10;99.90
57058;DHT22;55017;52.848;6.748;2022-11-14T02:14:25;7.10;99.90
57058;DHT22;55017;52.848;6.748;2022-11-14T02:16:51;7.00;99.90
57058;DHT22;55017;52.848;6.748;2022-11-14T02:19:16;7.00;99.90
57058;DHT22;55017;52.848;6.748;2022-11-14T02:21:42;7.00;99.90
57058;DHT22;55017;52.848;6.748;2022-11-14T02:24:09;7.00;99.90
57058;DHT22;55017;52.848;6.748;2022-11-14T02:26:36;7.00;99.90
57058;DHT22;55017;52.848;6.748;2022-11-14T02:29:03;6.90;99.90
57058;DHT22;55017;52.848;6.748;2022-11-14T02:31:29;7.00;99.90
57058;DHT22;55017;52.848;6.748;2022-11-14T02:33:55;7.00;99.90
57058;DHT22;55017;52.848;6.748;2022-11-14T02:36:21;7.10;99.90
57058;DHT22;55017;52.848;6.748;2022-11-14T02:38:46;7.00;99.90
57058;DHT22;55017;52.848;6.748;2022-11-14T02:41:12;7.00;99.90
57058;DHT22;55017;52.848;6.748;2022-11-14T02:43:37;7.10;99.90
57058;DHT22;55017;52.848;6.748;2022-11-14T02:46:03;7.00;99.90
57058;DHT22;55017;52.848;6.748;2022-11-14T02:48:29;7.00;99.90
57058;DHT22;55017;52.848;6.748;2022-11-14T02:50:54;7.00;99.90
57058;DHT22;55017;52.848;6.748;2022-11-14T02:53:20;7.10;99.90
57058;DHT22;55017;52.848;6.748;2022-11-14T02:55:46;6.90;99.90
57058;DHT22;55017;52.848;6.748;2022-11-14T02:58:11;6.90;99.90
57058;DHT22;55017;52.848;6.748;2022-11-14T03:00:37;7.00;99.90
57058;DHT22;55017;52.848;6.748;2022-11-14T03:03:02;7.00;99.90
57058;DHT22;55017;52.848;6.748;2022-11-14T03:05:28;6.90;99.90
57058;DHT22;55017;52.848;6.748;2022-11-14T03:07:54;7.00;99.90
57058;DHT22;55017;52.848;6.748;2022-11-14T03:10:21;6.90;99.90
57058;DHT22;55017;52.848;6.748;2022-11-14T03:12:47;7.00;99.90
57058;DHT22;55017;52.848;6.748;2022-11-14T03:15:13;7.00;99.90
57058;DHT22;55017;52.848;6.748;2022-11-14T03:17:39;7.00;99.90
57058;DHT22;55017;52.848;6.748;2022-11-14T03:20:05;7.00;99.90
57058;DHT22;55017;52.848;6.748;2022-11-14T03:22:31;6.90;99.90
57058;DHT22;55017;52.848;6.748;2022-11-14T03:24:56;7.00;99.90
57058;DHT22;55017;52.848;6.748;2022-11-14T03:27:22;7.00;99.90
57058;DHT22;55017;52.848;6.748;2022-11-14T03:29:48;6.90;99.90
57058;DHT22;55017;52.848;6.748;2022-11-14T03:32:14;6.90;99.90
57058;DHT22;55017;52.848;6.748;2022-11-14T03:34:39;6.90;99.90
57058;DHT22;55017;52.848;6.748;2022-11-14T03:37:05;6.80;99.90
57058;DHT22;55017;52.848;6.748;2022-11-14T03:39:31;6.70;99.90
57058;DHT22;55017;52.848;6.748;2022-11-14T03:41:56;6.90;99.90
57058;DHT22;55017;52.848;6.748;2022-11-14T03:44:22;6.90;99.90
57058;DHT22;55017;52.848;6.748;2022-11-14T03:46:47;6.80;99.90
57058;DHT22;55017;52.848;6.748;2022-11-14T03:49:13;6.90;99.90
57058;DHT22;55017;52.848;6.748;2022-11-14T03:51:38;6.90;99.90
57058;DHT22;55017;52.848;6.748;2022-11-14T03:54:04;6.80;99.90
57058;DHT22;55017;52.848;6.748;2022-11-14T03:56:30;6.90;99.90
57058;DHT22;55017;52.848;6.748;2022-11-14T03:58:55;6.80;99.90
57058;DHT22;55017;52.848;6.748;2022-11-14T04:01:21;6.80;99.90
57058;DHT22;55017;52.848;6.748;2022-11-14T04:03:47;6.80;99.90
57058;DHT22;55017;52.848;6.748;2022-11-14T04:06:12;6.80;99.90
57058;DHT22;55017;52.848;6.748;2022-11-14T04:08:41;6.80;99.90
57058;DHT22;55017;52.848;6.748;2022-11-14T04:11:06;6.90;99.90
57058;DHT22;55017;52.848;6.748;2022-11-14T04:13:32;6.90;99.90
57058;DHT22;55017;52.848;6.748;2022-11-14T04:15:58;6.80;99.90
57058;DHT22;55017;52.848;6.748;2022-11-14T04:18:25;6.80;99.90
57058;DHT22;55017;52.848;6.748;2022-11-14T04:20:51;6.80;99.90
57058;DHT22;55017;52.848;6.748;2022-11-14T04:23:17;6.80;99.90
57058;DHT22;55017;52.848;6.748;2022-11-14T04:25:44;6.70;99.90
57058;DHT22;55017;52.848;6.748;2022-11-14T04:28:10;6.80;99.90
57058;DHT22;55017;52.848;6.748;2022-11-14T04:30:35;6.80;99.90
57058;DHT22;55017;52.848;6.748;2022-11-14T04:33:01;6.80;99.90
57058;DHT22;55017;52.848;6.748;2022-11-14T04:35:26;6.80;99.90
57058;DHT22;55017;52.848;6.748;2022-11-14T04:37:52;6.90;99.90
57058;DHT22;55017;52.848;6.748;2022-11-14T04:40:18;6.80;99.90
57058;DHT22;55017;52.848;6.748;2022-11-14T04:42:43;6.80;99.90
57058;DHT22;55017;52.848;6.748;2022-11-14T04:45:09;6.90;99.90
57058;DHT22;55017;52.848;6.748;2022-11-14T04:47:35;6.80;99.90
57058;DHT22;55017;52.848;6.748;2022-11-14T04:50:02;6.70;99.90
57058;DHT22;55017;52.848;6.748;2022-11-14T04:52:28;6.80;99.90
57058;DHT22;55017;52.848;6.748;2022-11-14T04:54:53;6.80;99.90
57058;DHT22;55017;52.848;6.748;2022-11-14T04:57:19;6.70;99.90
57058;DHT22;55017;52.848;6.748;2022-11-14T04:59:44;6.80;99.90
57058;DHT22;55017;52.848;6.748;2022-11-14T05:02:10;6.70;99.90
57058;DHT22;55017;52.848;6.748;2022-11-14T05:04:36;6.70;99.90
57058;DHT22;55017;52.848;6.748;2022-11-14T05:07:01;6.80;99.90
57058;DHT22;55017;52.848;6.748;2022-11-14T05:09:27;6.80;99.90
57058;DHT22;55017;52.848;6.748;2022-11-14T05:11:53;6.70;99.90
57058;DHT22;55017;52.848;6.748;2022-11-14T05:14:18;6.80;99.90
57058;DHT22;55017;52.848;6.748;2022-11-14T05:16:44;6.70;99.90
57058;DHT22;55017;52.848;6.748;2022-11-14T05:19:09;6.70;99.90
57058;DHT22;55017;52.848;6.748;2022-11-14T05:21:35;6.60;99.90
57058;DHT22;55017;52.848;6.748;2022-11-14T05:24:01;6.60;99.90
57058;DHT22;55017;52.848;6.748;2022-11-14T05:26:26;6.60;99.90
57058;DHT22;55017;52.848;6.748;2022-11-14T05:28:52;6.60;99.90
57058;DHT22;55017;52.848;6.748;2022-11-14T05:31:18;6.60;99.90
57058;DHT22;55017;52.848;6.748;2022-11-14T05:33:44;6.50;99.90
57058;DHT22;55017;52.848;6.748;2022-11-14T05:36:12;6.60;99.90
57058;DHT22;55017;52.848;6.748;2022-11-14T05:38:38;6.50;99.90
57058;DHT22;55017;52.848;6.748;2022-11-14T05:41:09;6.50;99.90
57058;DHT22;55017;52.848;6.748;2022-11-14T05:43:36;6.50;99.90
57058;DHT22;55017;52.848;6.748;2022-11-14T05:46:03;6.50;99.90
57058;DHT22;55017;52.848;6.748;2022-11-14T05:48:29;6.50;99.90
57058;DHT22;55017;52.848;6.748;2022-11-14T05:50:59;6.50;99.90
57058;DHT22;55017;52.848;6.748;2022-11-14T05:53:26;6.60;99.90
57058;DHT22;55017;52.848;6.748;2022-11-14T05:55:52;6.50;99.90
57058;DHT22;55017;52.848;6.748;2022-11-14T05:58:18;6.60;99.90
57058;DHT22;55017;52.848;6.748;2022-11-14T06:00:45;6.60;99.90
57058;DHT22;55017;52.848;6.748;2022-11-14T06:03:10;6.60;99.90
57058;DHT22;55017;52.848;6.748;2022-11-14T06:05:36;6.50;99.90
57058;DHT22;55017;52.848;6.748;2022-11-14T06:08:02;6.60;99.90
57058;DHT22;55017;52.848;6.748;2022-11-14T06:10:28;6.60;99.90
57058;DHT22;55017;52.848;6.748;2022-11-14T06:12:54;6.60;99.90
57058;DHT22;55017;52.848;6.748;2022-11-14T06:15:20;6.60;99.90
57058;DHT22;55017;52.848;6.748;2022-11-14T06:17:45;6.60;99.90
57058;DHT22;55017;52.848;6.748;2022-11-14T06:20:11;6.60;99.90
57058;DHT22;55017;52.848;6.748;2022-11-14T06:22:41;6.50;99.90
57058;DHT22;55017;52.848;6.748;2022-11-14T06:25:07;6.50;99.90
57058;DHT22;55017;52.848;6.748;2022-11-14T06:27:33;6.50;99.90
57058;DHT22;55017;52.848;6.748;2022-11-14T06:29:59;6.40;99.90
57058;DHT22;55017;52.848;6.748;2022-11-14T06:32:24;6.30;99.90
57058;DHT22;55017;52.848;6.748;2022-11-14T06:34:50;6.40;99.90
57058;DHT22;55017;52.848;6.748;2022-11-14T06:37:15;6.40;99.90
57058;DHT22;55017;52.848;6.748;2022-11-14T06:39:41;6.40;99.90
57058;DHT22;55017;52.848;6.748;2022-11-14T06:42:07;6.40;99.90
57058;DHT22;55017;52.848;6.748;2022-11-14T06:44:32;6.50;99.90
57058;DHT22;55017;52.848;6.748;2022-11-14T06:46:58;6.30;99.90
57058;DHT22;55017;52.848;6.748;2022-11-14T06:49:24;6.40;99.90
57058;DHT22;55017;52.848;6.748;2022-11-14T06:51:50;6.40;99.90
57058;DHT22;55017;52.848;6.748;2022-11-14T06:54:15;6.40;99.90
57058;DHT22;55017;52.848;6.748;2022-11-14T06:56:41;6.40;99.90
57058;DHT22;55017;52.848;6.748;2022-11-14T06:59:07;6.40;99.90
57058;DHT22;55017;52.848;6.748;2022-11-14T07:01:33;6.40;99.90
57058;DHT22;55017;52.848;6.748;2022-11-14T07:03:58;6.40;99.90
57058;DHT22;55017;52.848;6.748;2022-11-14T07:06:27;6.40;99.90
57058;DHT22;55017;52.848;6.748;2022-11-14T07:08:54;6.40;99.90
57058;DHT22;55017;52.848;6.748;2022-11-14T07:11:25;6.40;99.90
57058;DHT22;55017;52.848;6.748;2022-11-14T07:13:54;6.30;99.90
57058;DHT22;55017;52.848;6.748;2022-11-14T07:16:23;6.40;99.90
57058;DHT22;55017;52.848;6.748;2022-11-14T07:18:49;6.20;99.90
57058;DHT22;55017;52.848;6.748;2022-11-14T07:21:14;6.30;99.90
57058;DHT22;55017;52.848;6.748;2022-11-14T07:23:41;6.20;99.90
57058;DHT22;55017;52.848;6.748;2022-11-14T07:26:08;6.20;99.90
57058;DHT22;55017;52.848;6.748;2022-11-14T07:28:36;6.20;99.90
57058;DHT22;55017;52.848;6.748;2022-11-14T07:31:03;6.20;99.90
57058;DHT22;55017;52.848;6.748;2022-11-14T07:33:30;6.30;99.90
57058;DHT22;55017;52.848;6.748;2022-11-14T07:35:55;6.30;99.90
57058;DHT22;55017;52.848;6.748;2022-11-14T07:38:21;6.20;99.90
57058;DHT22;55017;52.848;6.748;2022-11-14T07:40:56;6.20;99.90
57058;DHT22;55017;52.848;6.748;2022-11-14T07:43:22;6.30;99.90
57058;DHT22;55017;52.848;6.748;2022-11-14T07:45:47;6.30;99.90
57058;DHT22;55017;52.848;6.748;2022-11-14T07:48:13;6.20;99.90
57058;DHT22;55017;52.848;6.748;2022-11-14T07:50:39;6.20;99.90
57058;DHT22;55017;52.848;6.748;2022-11-14T07:53:04;6.20;99.90
57058;DHT22;55017;52.848;6.748;2022-11-14T07:55:30;6.20;99.90
57058;DHT22;55017;52.848;6.748;2022-11-14T07:57:58;6.20;99.90
57058;DHT22;55017;52.848;6.748;2022-11-14T08:00:24;6.40;99.90
57058;DHT22;55017;52.848;6.748;2022-11-14T08:02:49;6.20;99.90
57058;DHT22;55017;52.848;6.748;2022-11-14T08:05:16;6.30;99.90
57058;DHT22;55017;52.848;6.748;2022-11-14T08:07:41;6.40;99.90
57058;DHT22;55017;52.848;6.748;2022-11-14T08:10:07;6.40;99.90
57058;DHT22;55017;52.848;6.748;2022-11-14T08:12:36;6.40;99.90
57058;DHT22;55017;52.848;6.748;2022-11-14T08:15:05;6.50;99.90
57058;DHT22;55017;52.848;6.748;2022-11-14T08:17:30;6.40;99.90
57058;DHT22;55017;52.848;6.748;2022-11-14T08:19:56;6.40;99.90
57058;DHT22;55017;52.848;6.748;2022-11-14T08:22:22;6.40;99.90
57058;DHT22;55017;52.848;6.748;2022-11-14T08:24:47;6.40;99.90
57058;DHT22;55017;52.848;6.748;2022-11-14T08:27:13;6.50;99.90
57058;DHT22;55017;52.848;6.748;2022-11-14T08:29:38;6.60;99.90
57058;DHT22;55017;52.848;6.748;2022-11-14T08:32:04;6.70;99.90
57058;DHT22;55017;52.848;6.748;2022-11-14T08:34:30;6.70;99.90
57058;DHT22;55017;52.848;6.748;2022-11-14T08:36:55;6.90;99.90
57058;DHT22;55017;52.848;6.748;2022-11-14T08:39:22;7.20;99.90
57058;DHT22;55017;52.848;6.748;2022-11-14T08:41:48;7.20;99.90
57058;DHT22;55017;52.848;6.748;2022-11-14T08:44:13;7.30;99.90
57058;DHT22;55017;52.848;6.748;2022-11-14T08:46:39;7.30;99.90
57058;DHT22;55017;52.848;6.748;2022-11-14T08:49:05;7.60;99.90
57058;DHT22;55017;52.848;6.748;2022-11-14T08:51:30;8.10;99.90
57058;DHT22;55017;52.848;6.748;2022-11-14T08:53:56;8.50;99.90
57058;DHT22;55017;52.848;6.748;2022-11-14T08:56:21;8.60;99.90
57058;DHT22;55017;52.848;6.748;2022-11-14T08:58:47;8.50;99.90
57058;DHT22;55017;52.848;6.748;2022-11-14T09:01:13;8.60;99.90
57058;DHT22;55017;52.848;6.748;2022-11-14T09:03:38;8.60;99.90
57058;DHT22;55017;52.848;6.748;2022-11-14T09:06:04;8.40;99.90
57058;DHT22;55017;52.848;6.748;2022-11-14T09:08:30;8.40;99.90
57058;DHT22;55017;52.848;6.748;2022-11-14T09:10:59;8.70;99.90
57058;DHT22;55017;52.848;6.748;2022-11-14T09:13:25;9.30;99.90
57058;DHT22;55017;52.848;6.748;2022-11-14T09:15:52;9.90;99.90
57058;DHT22;55017;52.848;6.748;2022-11-14T09:18:17;10.30;99.90
57058;DHT22;55017;52.848;6.748;2022-11-14T09:20:43;10.60;99.90
57058;DHT22;55017;52.848;6.748;2022-11-14T09:23:09;11.00;99.90
57058;DHT22;55017;52.848;6.748;2022-11-14T09:25:35;11.20;99.90
57058;DHT22;55017;52.848;6.748;2022-11-14T09:28:05;11.70;99.90
57058;DHT22;55017;52.848;6.748;2022-11-14T09:30:31;12.40;99.90
57058;DHT22;55017;52.848;6.748;2022-11-14T09:33:02;12.80;99.90
57058;DHT22;55017;52.848;6.748;2022-11-14T09:35:28;12.70;99.90
57058;DHT22;55017;52.848;6.748;2022-11-14T09:38:06;13.50;99.90
57058;DHT22;55017;52.848;6.748;2022-11-14T09:46:12;14.20;93.90
57058;DHT22;55017;52.848;6.748;2022-11-14T09:48:41;13.90;94.90
57058;DHT22;55017;52.848;6.748;2022-11-14T09:51:13;13.10;96.00
57058;DHT22;55017;52.848;6.748;2022-11-14T09:53:55;12.90;96.70
57058;DHT22;55017;52.848;6.748;2022-11-14T09:56:24;12.60;97.50
57058;DHT22;55017;52.848;6.748;2022-11-14T09:58:52;12.30;98.50
57058;DHT22;55017;52.848;6.748;2022-11-14T10:02:00;11.70;99.90
57058;DHT22;55017;52.848;6.748;2022-11-14T10:12:53;10.10;99.90
57058;DHT22;55017;52.848;6.748;2022-11-14T10:15:27;9.80;99.90
57058;DHT22;55017;52.848;6.748;2022-11-14T10:18:09;9.60;99.90
57058;DHT22;55017;52.848;6.748;2022-11-14T10:21:25;9.50;99.90
57058;DHT22;55017;52.848;6.748;2022-11-14T10:26:30;9.60;99.90
57058;DHT22;55017;52.848;6.748;2022-11-14T10:31:38;9.90;99.90
57058;DHT22;55017;52.848;6.748;2022-11-14T10:34:14;10.00;99.90
57058;DHT22;55017;52.848;6.748;2022-11-14T10:36:58;9.80;99.90
57058;DHT22;55017;52.848;6.748;2022-11-14T10:39:33;10.00;99.90
57058;DHT22;55017;52.848;6.748;2022-11-14T10:42:02;10.30;99.90
57058;DHT22;55017;52.848;6.748;2022-11-14T10:44:33;10.40;99.90
57058;DHT22;55017;52.848;6.748;2022-11-14T10:47:03;10.50;99.90
57058;DHT22;55017;52.848;6.748;2022-11-14T10:49:32;10.60;99.90
57058;DHT22;55017;52.848;6.748;2022-11-14T10:52:04;10.70;99.90
57058;DHT22;55017;52.848;6.748;2022-11-14T10:54:44;10.60;99.90
57058;DHT22;55017;52.848;6.748;2022-11-14T10:57:16;10.70;99.90
57058;DHT22;55017;52.848;6.748;2022-11-14T10:59:42;10.90;99.90
57058;DHT22;55017;52.848;6.748;2022-11-14T11:02:08;10.80;99.90
57058;DHT22;55017;52.848;6.748;2022-11-14T11:04:35;10.90;99.90
57058;DHT22;55017;52.848;6.748;2022-11-14T11:09:42;11.10;99.90
57058;DHT22;55017;52.848;6.748;2022-11-14T11:15:30;12.60;99.90
57058;DHT22;55017;52.848;6.748;2022-11-14T11:18:04;15.00;95.20
57058;DHT22;55017;52.848;6.748;2022-11-14T11:20:35;16.70;82.60
57058;DHT22;55017;52.848;6.748;2022-11-14T11:25:38;18.40;68.10
57058;DHT22;55017;52.848;6.748;2022-11-14T11:28:17;18.40;66.50
57058;DHT22;55017;52.848;6.748;2022-11-14T11:30:56;19.20;64.00
57058;DHT22;55017;52.848;6.748;2022-11-14T11:33:24;19.90;58.80
57058;DHT22;55017;52.848;6.748;2022-11-14T11:35:54;20.50;59.90
57058;DHT22;55017;52.848;6.748;2022-11-14T11:38:20;21.30;58.90
57058;DHT22;55017;52.848;6.748;2022-11-14T11:40:50;21.70;56.10
57058;DHT22;55017;52.848;6.748;2022-11-14T11:43:24;21.30;54.00
57058;DHT22;55017;52.848;6.748;2022-11-14T11:45:52;21.20;50.70
57058;DHT22;55017;52.848;6.748;2022-11-14T11:48:22;21.40;55.50
57058;DHT22;55017;52.848;6.748;2022-11-14T11:50:49;20.80;55.30
57058;DHT22;55017;52.848;6.748;2022-11-14T11:53:28;21.00;54.60
57058;DHT22;55017;52.848;6.748;2022-11-14T11:56:00;21.10;52.20
57058;DHT22;55017;52.848;6.748;2022-11-14T11:58:34;20.10;53.60
57058;DHT22;55017;52.848;6.748;2022-11-14T12:01:02;19.80;54.70
57058;DHT22;55017;52.848;6.748;2022-11-14T12:03:28;19.10;55.60
57058;DHT22;55017;52.848;6.748;2022-11-14T12:08:50;18.90;55.60
57058;DHT22;55017;52.848;6.748;2022-11-14T12:11:23;18.70;56.10
57058;DHT22;55017;52.848;6.748;2022-11-14T12:28:50;16.70;60.70
57058;DHT22;55017;52.848;6.748;2022-11-14T12:31:29;16.10;63.30
57058;DHT22;55017;52.848;6.748;2022-11-14T12:34:06;15.90;65.80
57058;DHT22;55017;52.848;6.748;2022-11-14T12:36:38;15.70;66.40
57058;DHT22;55017;52.848;6.748;2022-11-14T12:39:21;15.90;66.20
57058;DHT22;55017;52.848;6.748;2022-11-14T12:41:48;15.50;66.20
57058;DHT22;55017;52.848;6.748;2022-11-14T12:44:38;15.40;67.10
57058;DHT22;55017;52.848;6.748;2022-11-14T13:03:40;13.20;78.90
57058;DHT22;55017;52.848;6.748;2022-11-14T13:06:18;13.20;80.70
57058;DHT22;55017;52.848;6.748;2022-11-14T13:11:40;13.10;83.50
57058;DHT22;55017;52.848;6.748;2022-11-14T13:14:25;13.00;83.90
57058;DHT22;55017;52.848;6.748;2022-11-14T13:19:57;12.50;88.70
57058;DHT22;55017;52.848;6.748;2022-11-14T13:22:43;12.00;90.20
57058;DHT22;55017;52.848;6.748;2022-11-14T13:27:35;11.60;91.70
57058;DHT22;55017;52.848;6.748;2022-11-14T13:30:03;11.40;93.00
57058;DHT22;55017;52.848;6.748;2022-11-14T13:43:47;11.00;99.00
57058;DHT22;55017;52.848;6.748;2022-11-14T13:49:17;10.90;99.90
57058;DHT22;55017;52.848;6.748;2022-11-14T13:51:47;10.60;99.90
57058;DHT22;55017;52.848;6.748;2022-11-14T13:54:16;10.70;99.90
57058;DHT22;55017;52.848;6.748;2022-11-14T13:57:10;10.60;99.90
57058;DHT22;55017;52.848;6.748;2022-11-14T13:59:54;10.70;99.90
57058;DHT22;55017;52.848;6.748;2022-11-14T14:05:23;10.50;99.90
57058;DHT22;55017;52.848;6.748;2022-11-14T14:08:06;10.60;99.90
57058;DHT22;55017;52.848;6.748;2022-11-14T14:10:56;10.40;99.90
57058;DHT22;55017;52.848;6.748;2022-11-14T14:13:29;10.50;99.90
57058;DHT22;55017;52.848;6.748;2022-11-14T14:16:04;10.40;99.90
57058;DHT22;55017;52.848;6.748;2022-11-14T14:18:44;10.50;99.90
57058;DHT22;55017;52.848;6.748;2022-11-14T14:24:16;10.30;99.90
57058;DHT22;55017;52.848;6.748;2022-11-14T14:32:16;10.30;99.90
57058;DHT22;55017;52.848;6.748;2022-11-14T14:34:42;10.30;99.90
57058;DHT22;55017;52.848;6.748;2022-11-14T14:37:16;10.20;99.90
57058;DHT22;55017;52.848;6.748;2022-11-14T14:39:55;10.20;99.90
57058;DHT22;55017;52.848;6.748;2022-11-14T14:42:21;10.20;99.90
57058;DHT22;55017;52.848;6.748;2022-11-14T14:44:47;10.10;99.90
57058;DHT22;55017;52.848;6.748;2022-11-14T14:47:40;10.00;99.90
57058;DHT22;55017;52.848;6.748;2022-11-14T14:50:20;10.10;99.90
57058;DHT22;55017;52.848;6.748;2022-11-14T14:52:58;10.10;99.90
57058;DHT22;55017;52.848;6.748;2022-11-14T14:55:32;10.10;99.90
57058;DHT22;55017;52.848;6.748;2022-11-14T15:00:57;10.20;99.90
57058;DHT22;55017;52.848;6.748;2022-11-14T15:03:29;10.00;99.90
57058;DHT22;55017;52.848;6.748;2022-11-14T15:05:57;10.00;99.90
57058;DHT22;55017;52.848;6.748;2022-11-14T15:08:24;10.00;99.90
57058;DHT22;55017;52.848;6.748;2022-11-14T15:10:51;10.00;99.90
57058;DHT22;55017;52.848;6.748;2022-11-14T15:13:17;10.00;99.90
57058;DHT22;55017;52.848;6.748;2022-11-14T15:15:44;10.00;99.90
57058;DHT22;55017;52.848;6.748;2022-11-14T15:18:23;10.00;99.90
57058;DHT22;55017;52.848;6.748;2022-11-14T15:21:15;10.10;99.90
57058;DHT22;55017;52.848;6.748;2022-11-14T15:24:00;10.00;99.90
57058;DHT22;55017;52.848;6.748;2022-11-14T15:26:29;10.10;99.90
57058;DHT22;55017;52.848;6.748;2022-11-14T15:29:16;10.00;99.90
57058;DHT22;55017;52.848;6.748;2022-11-14T15:31:51;10.10;99.90
57058;DHT22;55017;52.848;6.748;2022-11-14T15:39:38;10.00;99.90
57058;DHT22;55017;52.848;6.748;2022-11-14T15:44:51;10.10;99.90
57058;DHT22;55017;52.848;6.748;2022-11-14T15:47:38;10.00;99.90
57058;DHT22;55017;52.848;6.748;2022-11-14T15:50:21;9.90;99.90
57058;DHT22;55017;52.848;6.748;2022-11-14T15:53:00;9.90;99.90
57058;DHT22;55017;52.848;6.748;2022-11-14T15:55:26;9.90;99.90
57058;DHT22;55017;52.848;6.748;2022-11-14T15:57:52;9.90;99.90
57058;DHT22;55017;52.848;6.748;2022-11-14T16:00:18;9.80;99.90
57058;DHT22;55017;52.848;6.748;2022-11-14T16:02:58;9.80;99.90
57058;DHT22;55017;52.848;6.748;2022-11-14T16:05:24;9.80;99.90
57058;DHT22;55017;52.848;6.748;2022-11-14T16:07:51;9.70;99.90
57058;DHT22;55017;52.848;6.748;2022-11-14T16:10:19;9.80;99.90
57058;DHT22;55017;52.848;6.748;2022-11-14T16:12:44;9.70;99.90
57058;DHT22;55017;52.848;6.748;2022-11-14T16:15:10;9.80;99.90
57058;DHT22;55017;52.848;6.748;2022-11-14T16:17:41;9.80;99.90
57058;DHT22;55017;52.848;6.748;2022-11-14T16:20:13;9.70;99.90
57058;DHT22;55017;52.848;6.748;2022-11-14T16:22:43;9.70;99.90
57058;DHT22;55017;52.848;6.748;2022-11-14T16:25:16;9.80;99.90
57058;DHT22;55017;52.848;6.748;2022-11-14T16:27:43;9.70;99.90
57058;DHT22;55017;52.848;6.748;2022-11-14T16:30:11;9.70;99.90
57058;DHT22;55017;52.848;6.748;2022-11-14T16:32:37;9.80;99.90
57058;DHT22;55017;52.848;6.748;2022-11-14T16:35:03;9.60;99.90
57058;DHT22;55017;52.848;6.748;2022-11-14T16:37:28;9.60;99.90
57058;DHT22;55017;52.848;6.748;2022-11-14T16:39:54;9.50;99.90
57058;DHT22;55017;52.848;6.748;2022-11-14T16:42:20;9.60;99.90
57058;DHT22;55017;52.848;6.748;2022-11-14T16:44:45;9.60;99.90
57058;DHT22;55017;52.848;6.748;2022-11-14T16:47:13;9.60;99.90
57058;DHT22;55017;52.848;6.748;2022-11-14T16:49:39;9.50;99.90
57058;DHT22;55017;52.848;6.748;2022-11-14T16:52:04;9.50;99.90
57058;DHT22;55017;52.848;6.748;2022-11-14T16:54:31;9.50;99.90
57058;DHT22;55017;52.848;6.748;2022-11-14T16:56:57;9.60;99.90
57058;DHT22;55017;52.848;6.748;2022-11-14T16:59:23;9.50;99.90
57058;DHT22;55017;52.848;6.748;2022-11-14T17:01:48;9.60;99.90
57058;DHT22;55017;52.848;6.748;2022-11-14T17:04:14;9.60;99.90
57058;DHT22;55017;52.848;6.748;2022-11-14T17:06:39;9.60;99.90
57058;DHT22;55017;52.848;6.748;2022-11-14T17:09:05;9.60;99.90
57058;DHT22;55017;52.848;6.748;2022-11-14T17:11:31;9.50;99.90
57058;DHT22;55017;52.848;6.748;2022-11-14T17:13:57;9.50;99.90
57058;DHT22;55017;52.848;6.748;2022-11-14T17:16:23;9.40;99.90
57058;DHT22;55017;52.848;6.748;2022-11-14T17:18:50;9.50;99.90
57058;DHT22;55017;52.848;6.748;2022-11-14T17:21:16;9.40;99.90
57058;DHT22;55017;52.848;6.748;2022-11-14T17:23:42;9.20;99.90
57058;DHT22;55017;52.848;6.748;2022-11-14T17:26:10;9.20;99.90
57058;DHT22;55017;52.848;6.748;2022-11-14T17:28:36;9.10;99.90
57058;DHT22;55017;52.848;6.748;2022-11-14T17:31:09;9.10;99.90
57058;DHT22;55017;52.848;6.748;2022-11-14T17:33:35;9.20;99.90
57058;DHT22;55017;52.848;6.748;2022-11-14T17:36:06;9.00;99.90
57058;DHT22;55017;52.848;6.748;2022-11-14T17:38:33;9.20;99.90
57058;DHT22;55017;52.848;6.748;2022-11-14T17:40:59;9.10;99.90